Chapel Hill, TN (37034)

5:54 PM CST on February 06, 2016 (GMT -0600)
Chapel Hill | | Change Station
CLOSE
Current Station
Personal Weather Station
Location: Chapel Hill, TN
Elevation: 696 ft
Nearby Weather Stations

Elev 696 ft 35.61 °N, 86.70 °W | Updated 7 minutes ago

Partly Cloudy
Partly Cloudy
45.7 °F
Feels Like 46 °F
N
0.0
Wind Variable Wind from SE
Gusts 1.0 mph

Today
High -- | Low -- °F
--% Chance of Precip.
Yesterday
High -- | Low -- °F
Precip. -- in
Pressure 30.28 in
Visibility 10.0 miles
Clouds Clear
Windchill 46 °F
Dew Point 30 °F
Humidity 55%
Rainfall 0.00 in
Snow Depth Not available.
6:42 AM 5:18 PM
Waning Crescent, 3% visible
METAR KTHA 062335Z AUTO 00000KT 10SM CLR 06/M09 A3028 RMK
Pressure 30.28 in
Visibility 10.0 miles
Clouds Clear
Windchill 46 °F
Dew Point 30 °F
Humidity 55%
Rainfall 0.00 in
Snow Depth Not available.
6:42 AM 5:18 PM
Waning Crescent, 3% visible
METAR KTHA 062335Z AUTO 00000KT 10SM CLR 06/M09 A3028 RMK

10-Day Weather Forecast

Almanac

Astronomy

Feb. 06, 2016 Rise Set
Actual Time
Civil Twilight
Nautical Twilight
Astronomical Twilight
Moon
Length of Visible Light
Length of Day
Tomorrow will be .
, % of the Moon is Illuminated

Today's Extremes

State Highs State Lows

Community

WunderPhotos

Upload Photos

1,891,098 photos uploaded!

WunderBlog® & News

Nearby

Air Quality

  Air Quality AQ Index Pollutant
Not available.

Snow Depth

Station Depth Elevation

Earthquake Activity

City Distance Mag. Time & Date
Minimum magnitude displayed is 2.5.

Coastal Water Temperatures

Place Temperature

Stations

Nearby Weather Stations

Station Location Temp. Windchill Dew Point Humidity Wind Precip. Elev Updated Type
                   

Watches & Warnings

There are currently no watches in effect.